sensor_id;sensor_type;location;lat;lon;timestamp;pressure;altitude;pressure_sealevel;temperature;humidity
47811;BME280;33575;52.600;7.318;2023-08-01T00:00:09;99582.21;;;17.69;100.00
47811;BME280;33575;52.600;7.318;2023-08-01T00:02:39;99582.71;;;17.74;100.00
47811;BME280;33575;52.600;7.318;2023-08-01T00:05:09;99581.85;;;17.73;100.00
47811;BME280;33575;52.600;7.318;2023-08-01T00:07:39;99585.74;;;17.67;100.00
47811;BME280;33575;52.600;7.318;2023-08-01T00:10:09;99588.92;;;17.70;100.00
47811;BME280;33575;52.600;7.318;2023-08-01T00:12:40;99590.48;;;17.73;100.00
47811;BME280;33575;52.600;7.318;2023-08-01T00:15:11;99588.75;;;17.66;100.00
47811;BME280;33575;52.600;7.318;2023-08-01T00:17:40;99583.87;;;17.64;100.00
47811;BME280;33575;52.600;7.318;2023-08-01T00:20:11;99584.84;;;17.62;100.00
47811;BME280;33575;52.600;7.318;2023-08-01T00:22:41;99577.73;;;17.62;100.00
47811;BME280;33575;52.600;7.318;2023-08-01T00:25:11;99564.80;;;17.55;100.00
47811;BME280;33575;52.600;7.318;2023-08-01T00:27:42;99561.65;;;17.57;100.00
47811;BME280;33575;52.600;7.318;2023-08-01T00:30:12;99559.97;;;17.57;100.00
47811;BME280;33575;52.600;7.318;2023-08-01T00:32:42;99558.21;;;17.56;100.00
47811;BME280;33575;52.600;7.318;2023-08-01T00:35:13;99554.37;;;17.54;100.00
47811;BME280;33575;52.600;7.318;2023-08-01T00:37:43;99542.94;;;17.44;100.00
47811;BME280;33575;52.600;7.318;2023-08-01T00:40:14;99539.90;;;17.41;100.00
47811;BME280;33575;52.600;7.318;2023-08-01T00:42:44;99539.60;;;17.33;100.00
47811;BME280;33575;52.600;7.318;2023-08-01T00:45:14;99541.27;;;17.35;100.00
47811;BME280;33575;52.600;7.318;2023-08-01T00:47:45;99537.49;;;17.28;100.00
47811;BME280;33575;52.600;7.318;2023-08-01T00:50:16;99538.19;;;17.23;100.00
47811;BME280;33575;52.600;7.318;2023-08-01T00:52:46;99534.47;;;17.14;100.00
47811;BME280;33575;52.600;7.318;2023-08-01T00:55:16;99529.93;;;17.21;100.00
47811;BME280;33575;52.600;7.318;2023-08-01T00:57:47;99531.76;;;17.25;100.00
47811;BME280;33575;52.600;7.318;2023-08-01T01:00:17;99529.67;;;17.31;100.00
47811;BME280;33575;52.600;7.318;2023-08-01T01:02:47;99525.98;;;17.27;100.00
47811;BME280;33575;52.600;7.318;2023-08-01T01:05:17;99521.44;;;17.21;100.00
47811;BME280;33575;52.600;7.318;2023-08-01T01:07:48;99522.57;;;17.19;100.00
47811;BME280;33575;52.600;7.318;2023-08-01T01:10:18;99522.39;;;17.16;100.00
47811;BME280;33575;52.600;7.318;2023-08-01T01:12:49;99522.33;;;17.26;100.00
47811;BME280;33575;52.600;7.318;2023-08-01T01:15:19;99519.02;;;17.27;100.00
47811;BME280;33575;52.600;7.318;2023-08-01T01:17:50;99517.08;;;17.22;100.00
47811;BME280;33575;52.600;7.318;2023-08-01T01:20:21;99508.28;;;17.19;100.00
47811;BME280;33575;52.600;7.318;2023-08-01T01:22:51;99501.13;;;17.15;100.00
47811;BME280;33575;52.600;7.318;2023-08-01T01:25:22;99485.57;;;17.03;100.00
47811;BME280;33575;52.600;7.318;2023-08-01T01:27:53;99487.43;;;17.13;100.00
47811;BME280;33575;52.600;7.318;2023-08-01T01:30:22;99485.40;;;17.11;100.00
47811;BME280;33575;52.600;7.318;2023-08-01T01:32:52;99487.43;;;17.13;100.00
47811;BME280;33575;52.600;7.318;2023-08-01T01:35:22;99485.90;;;17.16;100.00
47811;BME280;33575;52.600;7.318;2023-08-01T01:37:52;99480.89;;;17.18;100.00
47811;BME280;33575;52.600;7.318;2023-08-01T01:40:23;99469.65;;;17.04;100.00
47811;BME280;33575;52.600;7.318;2023-08-01T01:42:53;99470.43;;;17.08;100.00
47811;BME280;33575;52.600;7.318;2023-08-01T01:45:23;99463.79;;;16.93;100.00
47811;BME280;33575;52.600;7.318;2023-08-01T01:47:54;99460.99;;;17.06;100.00
47811;BME280;33575;52.600;7.318;2023-08-01T01:50:23;99465.32;;;17.13;100.00
47811;BME280;33575;52.600;7.318;2023-08-01T01:52:54;99461.58;;;17.13;100.00
47811;BME280;33575;52.600;7.318;2023-08-01T01:55:24;99456.68;;;17.17;100.00
47811;BME280;33575;52.600;7.318;2023-08-01T01:57:54;99459.40;;;17.21;100.00
47811;BME280;33575;52.600;7.318;2023-08-01T02:00:25;99454.62;;;17.22;100.00
47811;BME280;33575;52.600;7.318;2023-08-01T02:02:55;99453.38;;;17.21;100.00
47811;BME280;33575;52.600;7.318;2023-08-01T02:05:25;99453.31;;;17.24;100.00
47811;BME280;33575;52.600;7.318;2023-08-01T02:07:56;99445.60;;;17.25;100.00
47811;BME280;33575;52.600;7.318;2023-08-01T02:10:27;99445.48;;;17.17;100.00
47811;BME280;33575;52.600;7.318;2023-08-01T02:12:57;99445.84;;;17.09;100.00
47811;BME280;33575;52.600;7.318;2023-08-01T02:15:27;99445.42;;;17.09;100.00
47811;BME280;33575;52.600;7.318;2023-08-01T02:17:58;99447.30;;;17.13;100.00
47811;BME280;33575;52.600;7.318;2023-08-01T02:20:28;99447.05;;;17.07;100.00
47811;BME280;33575;52.600;7.318;2023-08-01T02:22:58;99451.25;;;17.06;100.00
47811;BME280;33575;52.600;7.318;2023-08-01T02:25:29;99450.19;;;16.94;100.00
47811;BME280;33575;52.600;7.318;2023-08-01T02:28:00;99442.33;;;16.96;100.00
47811;BME280;33575;52.600;7.318;2023-08-01T02:30:30;99439.98;;;16.99;100.00
47811;BME280;33575;52.600;7.318;2023-08-01T02:33:01;99435.68;;;16.93;100.00
47811;BME280;33575;52.600;7.318;2023-08-01T02:35:31;99432.47;;;16.82;100.00
47811;BME280;33575;52.600;7.318;2023-08-01T02:38:01;99428.93;;;16.88;100.00
47811;BME280;33575;52.600;7.318;2023-08-01T02:40:32;99428.47;;;16.86;100.00
47811;BME280;33575;52.600;7.318;2023-08-01T02:43:02;99428.93;;;16.91;100.00
47811;BME280;33575;52.600;7.318;2023-08-01T02:45:32;99429.53;;;16.95;100.00
47811;BME280;33575;52.600;7.318;2023-08-01T02:48:03;99425.97;;;16.98;100.00
47811;BME280;33575;52.600;7.318;2023-08-01T02:50:34;99426.64;;;16.92;100.00
47811;BME280;33575;52.600;7.318;2023-08-01T02:53:04;99423.88;;;16.90;100.00
47811;BME280;33575;52.600;7.318;2023-08-01T02:55:34;99427.49;;;16.92;100.00
47811;BME280;33575;52.600;7.318;2023-08-01T02:58:05;99429.49;;;16.90;100.00
47811;BME280;33575;52.600;7.318;2023-08-01T03:00:38;99427.28;;;16.93;100.00
47811;BME280;33575;52.600;7.318;2023-08-01T03:03:07;99429.16;;;16.90;100.00
47811;BME280;33575;52.600;7.318;2023-08-01T03:05:37;99431.98;;;16.88;100.00
47811;BME280;33575;52.600;7.318;2023-08-01T03:08:08;99432.85;;;16.88;100.00
47811;BME280;33575;52.600;7.318;2023-08-01T03:10:39;99434.51;;;16.88;100.00
47811;BME280;33575;52.600;7.318;2023-08-01T03:13:09;99437.71;;;16.88;100.00
47811;BME280;33575;52.600;7.318;2023-08-01T03:15:39;99439.47;;;16.75;100.00
47811;BME280;33575;52.600;7.318;2023-08-01T03:18:10;99438.15;;;16.66;100.00
47811;BME280;33575;52.600;7.318;2023-08-01T03:20:40;99438.82;;;16.65;100.00
47811;BME280;33575;52.600;7.318;2023-08-01T03:23:10;99439.59;;;16.59;100.00
47811;BME280;33575;52.600;7.318;2023-08-01T03:25:41;99438.16;;;16.65;100.00
47811;BME280;33575;52.600;7.318;2023-08-01T03:28:12;99434.74;;;16.60;100.00
47811;BME280;33575;52.600;7.318;2023-08-01T03:30:42;99438.98;;;16.66;100.00
47811;BME280;33575;52.600;7.318;2023-08-01T03:33:12;99442.25;;;16.65;100.00
47811;BME280;33575;52.600;7.318;2023-08-01T03:35:43;99442.60;;;16.67;100.00
47811;BME280;33575;52.600;7.318;2023-08-01T03:38:13;99448.11;;;16.70;100.00
47811;BME280;33575;52.600;7.318;2023-08-01T03:40:43;99443.04;;;16.61;100.00
47811;BME280;33575;52.600;7.318;2023-08-01T03:43:14;99443.38;;;16.63;100.00
47811;BME280;33575;52.600;7.318;2023-08-01T03:45:45;99446.82;;;16.66;100.00
47811;BME280;33575;52.600;7.318;2023-08-01T03:48:15;99443.82;;;16.57;100.00
47811;BME280;33575;52.600;7.318;2023-08-01T03:50:45;99446.87;;;16.58;100.00
47811;BME280;33575;52.600;7.318;2023-08-01T03:53:16;99446.76;;;16.49;100.00
47811;BME280;33575;52.600;7.318;2023-08-01T03:55:47;99444.46;;;16.46;100.00
47811;BME280;33575;52.600;7.318;2023-08-01T03:58:17;99446.27;;;16.41;100.00
47811;BME280;33575;52.600;7.318;2023-08-01T04:00:47;99449.97;;;16.39;100.00
47811;BME280;33575;52.600;7.318;2023-08-01T04:03:18;99451.37;;;16.32;100.00
47811;BME280;33575;52.600;7.318;2023-08-01T04:05:49;99454.96;;;16.25;100.00
47811;BME280;33575;52.600;7.318;2023-08-01T04:08:19;99454.34;;;16.20;100.00
47811;BME280;33575;52.600;7.318;2023-08-01T04:10:49;99449.98;;;16.18;100.00
47811;BME280;33575;52.600;7.318;2023-08-01T04:13:20;99452.12;;;16.16;100.00
47811;BME280;33575;52.600;7.318;2023-08-01T04:15:50;99448.40;;;16.17;100.00
47811;BME280;33575;52.600;7.318;2023-08-01T04:18:22;99449.56;;;16.19;100.00
47811;BME280;33575;52.600;7.318;2023-08-01T04:20:51;99446.80;;;16.18;100.00
47811;BME280;33575;52.600;7.318;2023-08-01T04:23:21;99448.08;;;16.21;100.00
47811;BME280;33575;52.600;7.318;2023-08-01T04:25:52;99445.30;;;16.17;100.00
47811;BME280;33575;52.600;7.318;2023-08-01T04:28:23;99443.76;;;16.20;100.00
47811;BME280;33575;52.600;7.318;2023-08-01T04:30:53;99442.86;;;16.12;100.00
47811;BME280;33575;52.600;7.318;2023-08-01T04:33:23;99440.75;;;16.06;100.00
47811;BME280;33575;52.600;7.318;2023-08-01T04:35:54;99439.02;;;16.03;100.00
47811;BME280;33575;52.600;7.318;2023-08-01T04:38:24;99440.37;;;16.02;100.00
47811;BME280;33575;52.600;7.318;2023-08-01T04:40:54;99441.68;;;16.02;100.00
47811;BME280;33575;52.600;7.318;2023-08-01T04:43:25;99444.57;;;16.05;100.00
47811;BME280;33575;52.600;7.318;2023-08-01T04:45:56;99445.35;;;16.07;100.00
47811;BME280;33575;52.600;7.318;2023-08-01T04:48:26;99450.67;;;15.93;100.00
47811;BME280;33575;52.600;7.318;2023-08-01T04:50:56;99451.52;;;16.05;100.00
47811;BME280;33575;52.600;7.318;2023-08-01T04:53:27;99457.06;;;16.11;100.00
47811;BME280;33575;52.600;7.318;2023-08-01T04:55:57;99456.52;;;16.08;100.00
47811;BME280;33575;52.600;7.318;2023-08-01T04:58:27;99450.81;;;16.09;100.00
47811;BME280;33575;52.600;7.318;2023-08-01T05:00:58;99455.54;;;16.07;100.00
47811;BME280;33575;52.600;7.318;2023-08-01T05:03:28;99457.11;;;16.08;100.00
47811;BME280;33575;52.600;7.318;2023-08-01T05:05:59;99458.19;;;15.92;100.00
47811;BME280;33575;52.600;7.318;2023-08-01T05:08:29;99462.36;;;15.99;100.00
47811;BME280;33575;52.600;7.318;2023-08-01T05:10:59;99465.85;;;15.92;100.00
47811;BME280;33575;52.600;7.318;2023-08-01T05:13:29;99469.89;;;15.99;100.00
47811;BME280;33575;52.600;7.318;2023-08-01T05:16:00;99465.43;;;16.00;100.00
47811;BME280;33575;52.600;7.318;2023-08-01T05:18:30;99465.00;;;15.91;100.00
47811;BME280;33575;52.600;7.318;2023-08-01T05:21:00;99467.23;;;15.90;100.00
47811;BME280;33575;52.600;7.318;2023-08-01T05:23:31;99470.55;;;15.94;100.00
47811;BME280;33575;52.600;7.318;2023-08-01T05:26:01;99474.37;;;15.98;100.00
47811;BME280;33575;52.600;7.318;2023-08-01T05:28:31;99480.37;;;16.02;100.00
47811;BME280;33575;52.600;7.318;2023-08-01T05:31:02;99483.35;;;16.04;100.00
47811;BME280;33575;52.600;7.318;2023-08-01T05:33:32;99484.43;;;15.89;100.00
47811;BME280;33575;52.600;7.318;2023-08-01T05:36:03;99479.50;;;15.99;100.00
47811;BME280;33575;52.600;7.318;2023-08-01T05:38:33;99483.26;;;16.02;100.00
47811;BME280;33575;52.600;7.318;2023-08-01T05:41:03;99481.53;;;16.08;100.00
47811;BME280;33575;52.600;7.318;2023-08-01T05:43:33;99478.55;;;16.08;100.00
47811;BME280;33575;52.600;7.318;2023-08-01T05:46:04;99485.53;;;16.11;100.00
47811;BME280;33575;52.600;7.318;2023-08-01T05:48:34;99488.69;;;16.08;100.00
47811;BME280;33575;52.600;7.318;2023-08-01T05:51:04;99488.29;;;16.05;100.00
47811;BME280;33575;52.600;7.318;2023-08-01T05:53:35;99490.68;;;16.11;100.00
47811;BME280;33575;52.600;7.318;2023-08-01T05:56:05;99493.27;;;16.05;100.00
47811;BME280;33575;52.600;7.318;2023-08-01T05:58:35;99496.10;;;15.89;100.00
47811;BME280;33575;52.600;7.318;2023-08-01T06:01:06;99500.40;;;15.90;100.00
47811;BME280;33575;52.600;7.318;2023-08-01T06:03:36;99496.44;;;16.04;100.00
47811;BME280;33575;52.600;7.318;2023-08-01T06:06:06;99491.50;;;16.06;100.00
47811;BME280;33575;52.600;7.318;2023-08-01T06:08:37;99487.94;;;16.08;100.00
47811;BME280;33575;52.600;7.318;2023-08-01T06:11:07;99484.54;;;16.09;100.00
47811;BME280;33575;52.600;7.318;2023-08-01T06:13:37;99488.44;;;16.07;100.00
47811;BME280;33575;52.600;7.318;2023-08-01T06:16:08;99489.58;;;15.96;100.00
47811;BME280;33575;52.600;7.318;2023-08-01T06:18:38;99496.78;;;15.98;100.00
47811;BME280;33575;52.600;7.318;2023-08-01T06:21:09;99498.31;;;15.90;100.00
47811;BME280;33575;52.600;7.318;2023-08-01T06:23:39;99505.32;;;16.05;100.00
47811;BME280;33575;52.600;7.318;2023-08-01T06:26:09;99507.35;;;16.15;100.00
47811;BME280;33575;52.600;7.318;2023-08-01T06:28:40;99504.80;;;16.18;100.00
47811;BME280;33575;52.600;7.318;2023-08-01T06:31:10;99499.56;;;16.23;100.00
47811;BME280;33575;52.600;7.318;2023-08-01T06:33:40;99500.46;;;16.26;100.00
47811;BME280;33575;52.600;7.318;2023-08-01T06:36:11;99503.95;;;16.32;100.00
47811;BME280;33575;52.600;7.318;2023-08-01T06:38:41;99494.37;;;16.34;100.00
47811;BME280;33575;52.600;7.318;2023-08-01T06:41:11;99498.01;;;16.45;100.00
47811;BME280;33575;52.600;7.318;2023-08-01T06:43:42;99497.30;;;16.44;100.00
47811;BME280;33575;52.600;7.318;2023-08-01T06:46:12;99487.61;;;16.36;100.00
47811;BME280;33575;52.600;7.318;2023-08-01T06:48:42;99491.98;;;16.38;100.00
47811;BME280;33575;52.600;7.318;2023-08-01T06:51:13;99490.54;;;16.34;100.00
47811;BME280;33575;52.600;7.318;2023-08-01T06:53:43;99483.43;;;16.41;100.00
47811;BME280;33575;52.600;7.318;2023-08-01T06:56:13;99481.43;;;16.40;100.00
47811;BME280;33575;52.600;7.318;2023-08-01T06:58:44;99481.27;;;16.37;100.00
47811;BME280;33575;52.600;7.318;2023-08-01T07:01:14;99485.13;;;16.42;100.00
47811;BME280;33575;52.600;7.318;2023-08-01T07:03:44;99483.15;;;16.36;100.00
47811;BME280;33575;52.600;7.318;2023-08-01T07:06:14;99483.97;;;16.27;100.00
47811;BME280;33575;52.600;7.318;2023-08-01T07:08:45;99492.41;;;16.18;100.00
47811;BME280;33575;52.600;7.318;2023-08-01T07:11:15;99493.42;;;16.16;100.00
47811;BME280;33575;52.600;7.318;2023-08-01T07:13:45;99493.31;;;16.26;100.00
47811;BME280;33575;52.600;7.318;2023-08-01T07:16:16;99492.84;;;16.08;100.00
47811;BME280;33575;52.600;7.318;2023-08-01T07:18:46;99499.22;;;16.17;100.00
47811;BME280;33575;52.600;7.318;2023-08-01T07:21:17;99501.50;;;16.22;100.00
47811;BME280;33575;52.600;7.318;2023-08-01T07:23:47;99506.79;;;16.25;100.00
47811;BME280;33575;52.600;7.318;2023-08-01T07:26:17;99504.01;;;16.24;100.00
47811;BME280;33575;52.600;7.318;2023-08-01T07:28:47;99501.74;;;16.31;100.00
47811;BME280;33575;52.600;7.318;2023-08-01T07:31:18;99503.93;;;16.25;100.00
47811;BME280;33575;52.600;7.318;2023-08-01T07:33:48;99499.83;;;16.13;100.00
47811;BME280;33575;52.600;7.318;2023-08-01T07:36:18;99505.80;;;16.26;100.00
47811;BME280;33575;52.600;7.318;2023-08-01T07:38:49;99503.54;;;16.27;100.00
47811;BME280;33575;52.600;7.318;2023-08-01T07:41:19;99505.20;;;16.32;100.00
47811;BME280;33575;52.600;7.318;2023-08-01T07:43:49;99506.85;;;16.25;100.00
47811;BME280;33575;52.600;7.318;2023-08-01T07:46:20;99509.11;;;16.28;100.00
47811;BME280;33575;52.600;7.318;2023-08-01T07:48:50;99510.16;;;16.25;100.00
47811;BME280;33575;52.600;7.318;2023-08-01T07:51:20;99508.75;;;16.29;100.00
47811;BME280;33575;52.600;7.318;2023-08-01T07:53:51;99506.10;;;16.17;100.00
47811;BME280;33575;52.600;7.318;2023-08-01T07:56:21;99511.42;;;16.22;100.00
47811;BME280;33575;52.600;7.318;2023-08-01T07:58:52;99514.28;;;16.15;100.00
47811;BME280;33575;52.600;7.318;2023-08-01T08:01:22;99515.37;;;16.23;100.00
47811;BME280;33575;52.600;7.318;2023-08-01T08:03:52;99519.62;;;16.27;100.00
47811;BME280;33575;52.600;7.318;2023-08-01T08:06:22;99526.67;;;16.13;100.00
47811;BME280;33575;52.600;7.318;2023-08-01T08:08:53;99522.06;;;16.23;100.00
47811;BME280;33575;52.600;7.318;2023-08-01T08:11:23;99528.44;;;16.27;100.00
47811;BME280;33575;52.600;7.318;2023-08-01T08:13:53;99533.43;;;16.35;100.00
47811;BME280;33575;52.600;7.318;2023-08-01T08:16:24;99532.70;;;16.38;100.00
47811;BME280;33575;52.600;7.318;2023-08-01T08:18:54;99532.92;;;16.41;100.00
47811;BME280;33575;52.600;7.318;2023-08-01T08:21:24;99538.96;;;16.23;100.00
47811;BME280;33575;52.600;7.318;2023-08-01T08:23:55;99544.47;;;16.34;100.00
47811;BME280;33575;52.600;7.318;2023-08-01T08:26:25;99542.43;;;16.34;100.00
47811;BME280;33575;52.600;7.318;2023-08-01T08:28:55;99539.52;;;16.33;100.00
47811;BME280;33575;52.600;7.318;2023-08-01T08:31:25;99544.11;;;16.39;100.00
47811;BME280;33575;52.600;7.318;2023-08-01T08:33:56;99544.33;;;16.28;100.00
47811;BME280;33575;52.600;7.318;2023-08-01T08:36:26;99540.72;;;16.25;100.00
47811;BME280;33575;52.600;7.318;2023-08-01T08:38:57;99547.72;;;16.37;100.00
47811;BME280;33575;52.600;7.318;2023-08-01T08:41:28;99543.04;;;16.36;100.00
47811;BME280;33575;52.600;7.318;2023-08-01T08:43:59;99535.82;;;16.38;100.00
47811;BME280;33575;52.600;7.318;2023-08-01T08:46:29;99520.93;;;16.50;100.00
47811;BME280;33575;52.600;7.318;2023-08-01T08:49:00;99538.54;;;16.40;100.00
47811;BME280;33575;52.600;7.318;2023-08-01T08:51:29;99546.83;;;16.21;100.00
47811;BME280;33575;52.600;7.318;2023-08-01T08:54:05;99543.37;;;16.34;100.00
47811;BME280;33575;52.600;7.318;2023-08-01T08:56:29;99547.41;;;16.42;100.00
47811;BME280;33575;52.600;7.318;2023-08-01T08:59:00;99550.10;;;16.49;100.00
47811;BME280;33575;52.600;7.318;2023-08-01T09:01:31;99554.22;;;16.53;100.00
47811;BME280;33575;52.600;7.318;2023-08-01T09:04:00;99545.45;;;16.53;100.00
47811;BME280;33575;52.600;7.318;2023-08-01T09:06:34;99545.14;;;16.53;100.00
47811;BME280;33575;52.600;7.318;2023-08-01T09:09:06;99538.44;;;16.38;100.00
47811;BME280;33575;52.600;7.318;2023-08-01T09:11:41;99536.88;;;16.57;100.00
47811;BME280;33575;52.600;7.318;2023-08-01T09:14:02;99537.44;;;16.68;100.00
47811;BME280;33575;52.600;7.318;2023-08-01T09:16:33;99535.83;;;16.68;100.00
47811;BME280;33575;52.600;7.318;2023-08-01T09:19:02;99538.44;;;16.80;100.00
47811;BME280;33575;52.600;7.318;2023-08-01T09:21:33;99537.53;;;16.91;100.00
47811;BME280;33575;52.600;7.318;2023-08-01T09:24:08;99539.04;;;16.77;100.00
47811;BME280;33575;52.600;7.318;2023-08-01T09:26:33;99535.73;;;16.92;100.00
47811;BME280;33575;52.600;7.318;2023-08-01T09:29:04;99533.15;;;17.07;100.00
47811;BME280;33575;52.600;7.318;2023-08-01T09:31:36;99526.11;;;17.15;100.00
47811;BME280;33575;52.600;7.318;2023-08-01T09:34:06;99529.50;;;17.13;100.00
47811;BME280;33575;52.600;7.318;2023-08-01T09:36:35;99533.17;;;17.23;100.00
47811;BME280;33575;52.600;7.318;2023-08-01T09:39:05;99530.08;;;17.28;100.00
47811;BME280;33575;52.600;7.318;2023-08-01T09:41:35;99534.82;;;17.33;100.00
47811;BME280;33575;52.600;7.318;2023-08-01T09:44:06;99534.94;;;17.34;100.00
47811;BME280;33575;52.600;7.318;2023-08-01T09:46:36;99534.31;;;17.45;100.00
47811;BME280;33575;52.600;7.318;2023-08-01T09:49:07;99530.77;;;17.44;100.00
47811;BME280;33575;52.600;7.318;2023-08-01T09:54:07;99538.68;;;17.28;100.00
47811;BME280;33575;52.600;7.318;2023-08-01T09:56:38;99531.45;;;17.25;100.00
47811;BME280;33575;52.600;7.318;2023-08-01T09:59:08;99543.21;;;17.15;100.00
47811;BME280;33575;52.600;7.318;2023-08-01T10:01:39;99549.77;;;17.20;100.00
47811;BME280;33575;52.600;7.318;2023-08-01T10:04:09;99545.27;;;17.03;100.00
47811;BME280;33575;52.600;7.318;2023-08-01T10:06:42;99542.96;;;16.97;100.00
47811;BME280;33575;52.600;7.318;2023-08-01T10:09:10;99549.78;;;16.88;100.00
47811;BME280;33575;52.600;7.318;2023-08-01T10:11:40;99547.76;;;16.63;100.00
47811;BME280;33575;52.600;7.318;2023-08-01T10:14:10;99547.33;;;16.83;100.00
47811;BME280;33575;52.600;7.318;2023-08-01T10:16:41;99549.32;;;16.81;100.00
47811;BME280;33575;52.600;7.318;2023-08-01T10:19:12;99545.32;;;16.92;100.00
47811;BME280;33575;52.600;7.318;2023-08-01T10:21:41;99548.97;;;16.97;100.00
47811;BME280;33575;52.600;7.318;2023-08-01T10:24:11;99548.47;;;16.96;100.00
47811;BME280;33575;52.600;7.318;2023-08-01T10:26:44;99552.05;;;16.89;100.00
47811;BME280;33575;52.600;7.318;2023-08-01T10:29:12;99557.50;;;16.99;100.00
47811;BME280;33575;52.600;7.318;2023-08-01T10:31:50;99558.65;;;16.97;100.00
47811;BME280;33575;52.600;7.318;2023-08-01T10:34:15;99564.83;;;16.81;100.00
47811;BME280;33575;52.600;7.318;2023-08-01T10:39:20;99561.41;;;16.74;100.00
47811;BME280;33575;52.600;7.318;2023-08-01T10:41:44;99569.40;;;16.78;100.00
47811;BME280;33575;52.600;7.318;2023-08-01T10:44:15;99578.08;;;16.32;100.00
47811;BME280;33575;52.600;7.318;2023-08-01T10:46:48;99572.34;;;16.11;100.00
47811;BME280;33575;52.600;7.318;2023-08-01T10:49:14;99570.84;;;16.41;100.00
47811;BME280;33575;52.600;7.318;2023-08-01T10:51:45;99570.25;;;16.42;100.00
47811;BME280;33575;52.600;7.318;2023-08-01T10:54:19;99574.57;;;16.54;100.00
47811;BME280;33575;52.600;7.318;2023-08-01T10:56:45;99586.38;;;16.68;100.00
47811;BME280;33575;52.600;7.318;2023-08-01T10:59:15;99585.03;;;16.60;100.00
47811;BME280;33575;52.600;7.318;2023-08-01T11:01:49;99580.61;;;16.48;100.00
47811;BME280;33575;52.600;7.318;2023-08-01T11:04:16;99581.52;;;16.34;100.00
47811;BME280;33575;52.600;7.318;2023-08-01T11:06:47;99578.77;;;16.65;100.00
47811;BME280;33575;52.600;7.318;2023-08-01T11:09:18;99582.90;;;16.88;100.00
47811;BME280;33575;52.600;7.318;2023-08-01T11:11:49;99583.49;;;16.86;100.00
47811;BME280;33575;52.600;7.318;2023-08-01T11:14:19;99587.97;;;16.99;100.00
47811;BME280;33575;52.600;7.318;2023-08-01T11:16:48;99600.95;;;16.93;100.00
47811;BME280;33575;52.600;7.318;2023-08-01T11:19:19;99600.38;;;16.77;100.00
47811;BME280;33575;52.600;7.318;2023-08-01T11:21:48;99606.17;;;16.61;100.00
47811;BME280;33575;52.600;7.318;2023-08-01T11:24:19;99609.02;;;16.47;100.00
47811;BME280;33575;52.600;7.318;2023-08-01T11:26:50;99605.09;;;16.38;100.00
47811;BME280;33575;52.600;7.318;2023-08-01T11:29:19;99609.84;;;16.48;100.00
47811;BME280;33575;52.600;7.318;2023-08-01T11:31:53;99612.03;;;16.73;100.00
47811;BME280;33575;52.600;7.318;2023-08-01T11:34:19;99615.16;;;16.81;100.00
47811;BME280;33575;52.600;7.318;2023-08-01T11:36:50;99618.66;;;16.84;100.00
47811;BME280;33575;52.600;7.318;2023-08-01T11:39:20;99620.64;;;16.89;100.00
47811;BME280;33575;52.600;7.318;2023-08-01T11:41:50;99623.22;;;16.86;100.00
47811;BME280;33575;52.600;7.318;2023-08-01T11:44:23;99624.74;;;16.86;100.00
47811;BME280;33575;52.600;7.318;2023-08-01T11:46:51;99627.02;;;16.84;100.00
47811;BME280;33575;52.600;7.318;2023-08-01T11:49:21;99627.87;;;16.62;100.00
47811;BME280;33575;52.600;7.318;2023-08-01T11:51:52;99625.70;;;16.77;100.00
47811;BME280;33575;52.600;7.318;2023-08-01T11:54:22;99627.71;;;16.91;100.00
47811;BME280;33575;52.600;7.318;2023-08-01T11:57:00;99630.41;;;16.97;100.00
47811;BME280;33575;52.600;7.318;2023-08-01T11:59:22;99624.65;;;16.91;100.00
47811;BME280;33575;52.600;7.318;2023-08-01T12:01:53;99615.31;;;16.99;100.00
47811;BME280;33575;52.600;7.318;2023-08-01T12:04:25;99623.33;;;17.02;100.00
47811;BME280;33575;52.600;7.318;2023-08-01T12:06:53;99629.17;;;17.00;100.00
47811;BME280;33575;52.600;7.318;2023-08-01T12:09:26;99631.18;;;16.97;100.00
47811;BME280;33575;52.600;7.318;2023-08-01T12:11:58;99632.62;;;16.95;100.00
47811;BME280;33575;52.600;7.318;2023-08-01T12:14:25;99634.71;;;16.86;100.00
47811;BME280;33575;52.600;7.318;2023-08-01T12:16:54;99638.33;;;16.60;100.00
47811;BME280;33575;52.600;7.318;2023-08-01T12:19:25;99634.52;;;16.77;100.00
47811;BME280;33575;52.600;7.318;2023-08-01T12:21:55;99632.37;;;16.85;100.00
47811;BME280;33575;52.600;7.318;2023-08-01T12:24:25;99637.26;;;17.00;100.00
47811;BME280;33575;52.600;7.318;2023-08-01T12:26:56;99636.93;;;17.04;100.00
47811;BME280;33575;52.600;7.318;2023-08-01T12:29:26;99642.81;;;17.14;100.00
47811;BME280;33575;52.600;7.318;2023-08-01T12:31:57;99643.26;;;17.17;100.00
47811;BME280;33575;52.600;7.318;2023-08-01T12:34:27;99652.02;;;17.13;100.00
47811;BME280;33575;52.600;7.318;2023-08-01T12:36:57;99646.96;;;17.18;100.00
47811;BME280;33575;52.600;7.318;2023-08-01T12:39:28;99653.69;;;17.37;100.00
47811;BME280;33575;52.600;7.318;2023-08-01T12:41:58;99655.65;;;17.68;100.00
47811;BME280;33575;52.600;7.318;2023-08-01T12:44:28;99653.04;;;17.80;100.00
47811;BME280;33575;52.600;7.318;2023-08-01T12:46:58;99650.08;;;17.76;97.36
47811;BME280;33575;52.600;7.318;2023-08-01T12:49:28;99660.19;;;17.83;98.84
47811;BME280;33575;52.600;7.318;2023-08-01T12:51:59;99661.29;;;17.80;98.11
47811;BME280;33575;52.600;7.318;2023-08-01T12:54:29;99658.79;;;17.73;98.45
47811;BME280;33575;52.600;7.318;2023-08-01T12:56:59;99660.99;;;17.67;98.23
47811;BME280;33575;52.600;7.318;2023-08-01T12:59:30;99662.79;;;17.76;98.05
47811;BME280;33575;52.600;7.318;2023-08-01T13:02:00;99664.40;;;17.91;99.26
47811;BME280;33575;52.600;7.318;2023-08-01T13:04:30;99659.96;;;17.74;98.18
47811;BME280;33575;52.600;7.318;2023-08-01T13:07:01;99667.23;;;17.74;98.62
47811;BME280;33575;52.600;7.318;2023-08-01T13:09:31;99661.38;;;17.95;99.01